createdAt,value
2023-01-07T00:00:10.761Z,98647.50
2023-01-07T00:05:15.705Z,98652.00
2023-01-07T00:10:17.576Z,98652.81
2023-01-07T00:15:19.725Z,98646.81
2023-01-07T00:20:21.601Z,98650.91
2023-01-07T00:25:23.778Z,98635.38
2023-01-07T00:30:25.596Z,98645.72
2023-01-07T00:35:28.442Z,98644.63
2023-01-07T00:40:31.834Z,98635.59
2023-01-07T00:45:36.552Z,98632.72
2023-01-07T00:50:39.006Z,98630.13
2023-01-07T00:55:41.077Z,98621.69
2023-01-07T01:00:43.427Z,98635.59
2023-01-07T01:05:45.410Z,98632.06
2023-01-07T01:10:48.247Z,98630.13
2023-01-07T01:15:50.239Z,98635.16
2023-01-07T01:20:52.236Z,98642.66
2023-01-07T01:26:03.363Z,98637.47
2023-01-07T01:31:05.996Z,98636.66
2023-01-07T01:36:18.330Z,98636.66
2023-01-07T01:41:20.560Z,98630.66
2023-01-07T01:46:25.322Z,98633.09
2023-01-07T01:51:34.735Z,98629.56
2023-01-07T01:56:40.675Z,98623.13
2023-01-07T02:01:42.856Z,98626.25
2023-01-07T02:07:10.837Z,98622.69
2023-01-07T02:12:16.779Z,98620.91
2023-01-07T02:17:33.832Z,98620.25
2023-01-07T02:23:00.047Z,98608.25
2023-01-07T02:28:04.497Z,98601.44
2023-01-07T02:33:15.561Z,98602.41
2023-01-07T02:38:55.052Z,98586.88
2023-01-07T02:44:31.607Z,98585.09
2023-01-07T02:49:34.591Z,98579.09
2023-01-07T02:54:39.127Z,98573.69
2023-01-07T02:59:56.377Z,98575.75
2023-01-07T03:04:58.330Z,98578.13
2023-01-07T03:10:31.037Z,98575.00
2023-01-07T03:15:48.566Z,98573.00
2023-01-07T03:20:57.386Z,98576.84
2023-01-07T03:26:05.054Z,98574.69
2023-01-07T03:31:12.233Z,98588.06
2023-01-07T03:36:18.680Z,98585.91
2023-01-07T03:41:39.758Z,98579.09
2023-01-07T03:46:42.619Z,98587.97
2023-01-07T03:51:46.070Z,98587.97
2023-01-07T03:56:48.078Z,98590.53
2023-01-07T04:01:50.399Z,98574.19
2023-01-07T04:06:53.147Z,98571.75
2023-01-07T04:11:55.520Z,98570.28
2023-01-07T04:17:00.371Z,98574.63
2023-01-07T04:22:03.058Z,98572.34
2023-01-07T04:27:08.525Z,98575.75
2023-01-07T04:32:13.716Z,98565.38
2023-01-07T04:37:17.360Z,98564.72
2023-01-07T04:42:19.760Z,98551.09
2023-01-07T04:47:25.800Z,98546.75
2023-01-07T04:52:28.460Z,98556.13
2023-01-07T04:57:30.515Z,98547.28
2023-01-07T05:02:33.809Z,98553.25
2023-01-07T05:07:35.847Z,98554.38
2023-01-07T05:12:39.309Z,98548.38
2023-01-07T05:17:44.060Z,98542.53
2023-01-07T05:22:46.520Z,98543.63
2023-01-07T05:27:48.452Z,98536.00
2023-01-07T05:32:51.314Z,98532.09
2023-01-07T05:37:53.342Z,98531.41
2023-01-07T05:42:56.030Z,98528.97
2023-01-07T05:47:57.974Z,98523.81
2023-01-07T05:53:00.009Z,98527.72
2023-01-07T05:58:01.776Z,98537.66
2023-01-07T06:03:05.043Z,98525.38
2023-01-07T06:08:06.873Z,98520.88
2023-01-07T06:13:08.617Z,98516.09
2023-01-07T06:18:10.491Z,98521.94
2023-01-07T06:23:12.292Z,98514.03
2023-01-07T06:28:18.165Z,98521.94
2023-01-07T06:33:20.394Z,98516.75
2023-01-07T06:38:22.154Z,98508.03
2023-01-07T06:43:24.079Z,98511.28
2023-01-07T06:48:26.627Z,98512.63
2023-01-07T06:53:28.442Z,98506.34
2023-01-07T06:58:30.276Z,98508.78
2023-01-07T07:03:32.512Z,98510.41
2023-01-07T07:08:34.383Z,98513.66
2023-01-07T07:13:36.218Z,98515.16
2023-01-07T07:18:38.002Z,98506.28
2023-01-07T07:23:39.880Z,98523.44
2023-01-07T07:28:43.030Z,98526.84
2023-01-07T07:33:45.321Z,98530.91
2023-01-07T07:38:47.247Z,98529.94
2023-01-07T07:43:49.050Z,98534.03
2023-01-07T07:48:51.216Z,98527.75
2023-01-07T07:53:53.094Z,98517.09
2023-01-07T07:58:54.950Z,98514.22
2023-01-07T08:03:56.785Z,98507.09
2023-01-07T08:08:58.625Z,98506.97
2023-01-07T08:14:00.554Z,98497.94
2023-01-07T08:19:02.418Z,98508.00
2023-01-07T08:24:04.710Z,98505.09
2023-01-07T08:29:06.654Z,98505.09
2023-01-07T08:34:08.419Z,98513.03
2023-01-07T08:39:11.923Z,98518.06
2023-01-07T08:44:13.682Z,98516.13
2023-01-07T08:49:15.889Z,98527.31
2023-01-07T08:54:17.708Z,98518.78
2023-01-07T08:59:19.485Z,98511.59
2023-01-07T09:04:21.204Z,98506.34
2023-01-07T09:09:24.056Z,98506.84
2023-01-07T09:14:25.887Z,98508.47
2023-01-07T09:19:28.101Z,98498.13
2023-01-07T09:24:29.961Z,98497.50
2023-01-07T09:29:32.015Z,98482.63
2023-01-07T09:34:33.978Z,98490.25
2023-01-07T09:39:35.968Z,98488.47
2023-01-07T09:45:04.174Z,98488.16
2023-01-07T09:50:19.548Z,98481.72
2023-01-07T09:55:26.200Z,98472.81
2023-01-07T10:00:29.968Z,98464.53
2023-01-07T10:05:53.560Z,98460.03
2023-01-07T10:11:04.337Z,98454.22
2023-01-07T10:16:36.904Z,98442.13
2023-01-07T10:21:55.307Z,98439.41
2023-01-07T10:27:03.400Z,98435.75
2023-01-07T10:32:21.133Z,98428.81
2023-01-07T10:37:38.301Z,98423.81
2023-01-07T10:43:01.144Z,98422.84
2023-01-07T10:48:18.180Z,98422.53
2023-01-07T10:53:33.858Z,98412.00
2023-01-07T10:58:42.343Z,98406.16
2023-01-07T11:03:46.531Z,98403.75
2023-01-07T11:08:50.348Z,98379.28
2023-01-07T11:14:19.361Z,98376.03
2023-01-07T11:19:21.719Z,98360.44
2023-01-07T11:24:34.859Z,98352.50
2023-01-07T11:29:45.088Z,98346.66
2023-01-07T11:35:00.095Z,98349.41
2023-01-07T11:40:16.486Z,98333.84
2023-01-07T11:45:20.661Z,98322.66
2023-01-07T11:50:25.603Z,98322.81
2023-01-07T11:55:28.971Z,98322.81
2023-01-07T12:00:31.692Z,98311.97
2023-01-07T12:05:33.575Z,98313.75
2023-01-07T12:10:38.088Z,98308.88
2023-01-07T12:15:55.681Z,98305.97
2023-01-07T12:21:27.498Z,98295.09
2023-01-07T12:26:50.352Z,98293.97
2023-01-07T12:32:22.381Z,98280.97
2023-01-07T12:37:43.686Z,98277.25
2023-01-07T12:42:52.327Z,98269.16
2023-01-07T12:48:02.490Z,98268.97
2023-01-07T12:53:19.556Z,98268.66
2023-01-07T12:58:47.059Z,98260.19
2023-01-07T13:04:13.583Z,98256.78
2023-01-07T13:09:31.421Z,98247.72
2023-01-07T13:14:56.592Z,98250.81
2023-01-07T13:19:58.444Z,98252.44
2023-01-07T13:25:26.456Z,98249.53
2023-01-07T13:30:43.205Z,98252.44
2023-01-07T13:36:14.357Z,98245.97
2023-01-07T13:41:25.881Z,98243.53
2023-01-07T13:46:35.622Z,98240.63
2023-01-07T13:51:38.600Z,98235.59
2023-01-07T13:56:40.613Z,98231.38
2023-01-07T14:02:16.480Z,98219.41
2023-01-07T14:07:19.831Z,98214.53
2023-01-07T14:12:47.970Z,98213.72
2023-01-07T14:18:17.748Z,98213.25
2023-01-07T14:23:35.557Z,98201.91
2023-01-07T14:28:52.606Z,98195.06
2023-01-07T14:34:04.916Z,98189.69
2023-01-07T14:39:33.598Z,98184.50
2023-01-07T14:44:35.606Z,98181.09
2023-01-07T14:50:08.460Z,98172.34
2023-01-07T14:55:31.067Z,98164.72
2023-01-07T15:01:05.481Z,98164.03
2023-01-07T15:06:27.752Z,98159.81
2023-01-07T15:11:49.051Z,98156.88
2023-01-07T15:16:53.550Z,98154.78
2023-01-07T15:22:00.895Z,98152.81
2023-01-07T15:27:10.210Z,98155.38
2023-01-07T15:32:15.097Z,98146.78
2023-01-07T15:37:18.305Z,98158.88
2023-01-07T15:42:22.635Z,98154.47
2023-01-07T15:47:41.621Z,98146.69
2023-01-07T15:53:00.137Z,98150.34
2023-01-07T15:58:08.862Z,98146.09
2023-01-07T16:03:16.912Z,98147.00
2023-01-07T16:08:25.176Z,98141.63
2023-01-07T16:13:27.062Z,98133.53
2023-01-07T16:18:33.476Z,98119.44
2023-01-07T16:23:37.956Z,98122.47
2023-01-07T16:28:55.959Z,98122.28
2023-01-07T16:33:59.781Z,98108.84
2023-01-07T16:39:11.224Z,98102.19
2023-01-07T16:44:48.723Z,98094.06
2023-01-07T16:50:10.069Z,98094.81
2023-01-07T16:55:52.466Z,98096.22
2023-01-07T17:00:56.985Z,98086.50
2023-01-07T17:05:58.822Z,98081.13
2023-01-07T17:11:09.709Z,98081.56
2023-01-07T17:16:15.515Z,98071.03
2023-01-07T17:21:37.747Z,98061.81
2023-01-07T17:26:42.350Z,98057.91
2023-01-07T17:31:44.310Z,98059.97
2023-01-07T17:36:46.129Z,98062.03
2023-01-07T17:42:07.017Z,98057.19
2023-01-07T17:47:11.959Z,98035.50
2023-01-07T17:52:13.792Z,98033.50
2023-01-07T17:57:15.556Z,98043.16
2023-01-07T18:02:19.276Z,98045.09
2023-01-07T18:07:21.383Z,98053.00
2023-01-07T18:12:35.604Z,98041.03
2023-01-07T18:17:38.428Z,98036.97
2023-01-07T18:22:43.440Z,98030.50
2023-01-07T18:27:45.786Z,98026.88
2023-01-07T18:32:50.632Z,98021.19
2023-01-07T18:37:52.458Z,98025.03
2023-01-07T18:42:55.442Z,98011.63
2023-01-07T18:47:57.218Z,98022.91
2023-01-07T18:52:59.044Z,98024.00
2023-01-07T18:58:00.871Z,98011.53
2023-01-07T19:03:02.954Z,98012.00
2023-01-07T19:08:04.901Z,98017.28
2023-01-07T19:13:07.872Z,98005.34
2023-01-07T19:18:09.819Z,98003.59
2023-01-07T19:23:12.069Z,98001.97
2023-01-07T19:28:13.954Z,97998.41
2023-01-07T19:33:15.940Z,98005.34
2023-01-07T19:38:17.830Z,98018.41
2023-01-07T19:43:19.698Z,98014.19
2023-01-07T19:48:22.058Z,98010.81
2023-01-07T19:53:25.120Z,98005.94
2023-01-07T19:58:28.001Z,97998.63
2023-01-07T20:03:39.209Z,97988.09
2023-01-07T20:08:44.242Z,97985.66
2023-01-07T20:13:48.125Z,97975.78
2023-01-07T20:18:52.961Z,97964.78
2023-01-07T20:23:55.812Z,97948.00
2023-01-07T20:29:23.578Z,97962.28
2023-01-07T20:34:27.544Z,97945.63
2023-01-07T20:39:31.611Z,97948.50
2023-01-07T20:44:34.731Z,97948.78
2023-01-07T20:49:36.759Z,97941.34
2023-01-07T20:54:38.662Z,97947.31
2023-01-07T20:59:42.857Z,97938.91
2023-01-07T21:04:44.812Z,97938.41
2023-01-07T21:09:46.763Z,97940.31
2023-01-07T21:14:52.660Z,97928.53
2023-01-07T21:19:55.900Z,97915.91
2023-01-07T21:24:58.004Z,97909.28
2023-01-07T21:30:05.857Z,97902.00
2023-01-07T21:35:09.835Z,97898.91
2023-01-07T21:40:11.719Z,97894.97
2023-01-07T21:45:14.396Z,97889.16
2023-01-07T21:50:16.787Z,97890.25
2023-01-07T21:55:18.698Z,97893.13
2023-01-07T22:00:20.601Z,97887.31
2023-01-07T22:05:22.473Z,97888.56
2023-01-07T22:10:25.380Z,97874.84
2023-01-07T22:15:27.470Z,97875.16
2023-01-07T22:20:29.295Z,97881.94
2023-01-07T22:25:32.631Z,97882.06
2023-01-07T22:30:36.894Z,97872.88
2023-01-07T22:35:38.769Z,97876.69
2023-01-07T22:40:41.020Z,97864.91
2023-01-07T22:45:46.737Z,97860.84
2023-01-07T22:51:03.465Z,97858.56
2023-01-07T22:56:05.821Z,97850.44
2023-01-07T23:01:14.000Z,97829.19
2023-01-07T23:06:16.894Z,97836.38
2023-01-07T23:11:37.129Z,97825.41
2023-01-07T23:16:39.110Z,97835.19
2023-01-07T23:21:43.537Z,97836.81
2023-01-07T23:26:47.639Z,97823.28
2023-01-07T23:31:49.975Z,97831.00
2023-01-07T23:36:52.125Z,97830.44
2023-01-07T23:41:53.983Z,97821.91
2023-01-07T23:46:55.828Z,97804.84
2023-01-07T23:51:58.303Z,97787.25
2023-01-07T23:57:01.493Z,97782.91
